Aviation Digital Data Service (ADDS)

Output produced by METARs form (2354 UTC 28 September 2016)
found at http://www.aviationweather.gov/adds/metars/
 
KCXY 282318Z 07006KT 10SM OVC014 19/17 A3007 RMK AO2 LTG DSNT SW T01890167
KCXY 282256Z 07008KT 8SM BKN017 OVC023 19/17 A3006 RMK AO2 RAE28 SLP180 P0001 T01890167
KCXY 282156Z 09008KT 3SM +RA BKN015 OVC031 19/17 A3007 RMK AO2 RAB47 SLP184 P0001 T01940167
KCXY 282056Z 09007KT 8SM BKN020 OVC033 19/16 A3005 RMK AO2 SLP175 60010 T01940161 56006
KCXY 282048Z 09007KT 8SM SCT022 BKN033 OVC040 19/16 A3005 RMK AO2 T01940161
KCXY 282033Z 11005KT 10SM BKN024 BKN037 OVC043 19/16 A3005 RMK AO2 T01940161
KCXY 281956Z 10005KT 4SM BKN041 BKN047 OVC075 19/17 A3005 RMK AO2 RAE37 SLP177 P0006 T01940167
KCXY 281946Z 10003KT 4SM HZ FEW023 BKN041 OVC080 19/17 A3006 RMK AO2 RAE37 P0006 T01940167
KCXY 281900Z 13007KT 2SM RA SCT030 BKN048 OVC070 19/16 A3007 RMK AO2 P0002 T01940156
KCXY 281853Z 11009KT 2 1/2SM +RA BKN027 BKN036 OVC085 20/16 A3006 RMK AO2 RAB42 SLP181 P0004 T02000156
KCXY 281852Z 11008KT 2 1/2SM +RA BKN027 BKN036 OVC085 20/15 A3007 RMK AO2 RAB42 P0004
KCXY 281756Z 12011KT 10SM SCT033 BKN046 OVC080 22/13 A3005 RMK AO2 SLP177 T02170133 10239 20144 56001
KCXY 281656Z 13015KT 10SM SCT085 BKN110 22/11 A3005 RMK AO2 SLP177 T02220111
KCXY 281556Z 12013KT 10SM BKN110 23/09 A3004 RMK AO2 SLP173 T02280094
KCXY 281456Z VRB04KT 10SM CLR 21/13 A3005 RMK AO2 SLP178 T02060133 51013
KCXY 281356Z 06005KT 6SM HZ BKN070 BKN090 18/14 A3005 RMK AO2 SLP175 T01780139
KCXY 281256Z 12004KT 4SM BR BKN006 OVC075 16/13 A3003 RMK AO2 SLP171 T01560133
KCXY 281216Z 12005KT 4SM BR BKN008 OVC100 16/13 A3002 RMK AO2 T01560133
KCXY 281156Z 10004KT 4SM BR SCT008 BKN100 14/12 A3002 RMK AO2 SLP165 T01440122 10150 20122 50003
KCXY 281135Z 00000KT 5SM BR SCT008 BKN065 OVC100 13/12 A3002 RMK AO2 T01330117
KCXY 281124Z 00000KT 5SM BR SCT008 BKN013 OVC100 13/11 A3003 RMK AO2 T01280111
KCXY 281114Z 00000KT 5SM BR FEW008 BKN065 OVC100 13/11 A3002 RMK AO2 T01280111 $
KCXY 281056Z 00000KT 6SM BR OVC013 12/11 A3002 RMK AO2 SLP166 T01220106 $
KCXY 281041Z AUTO 00000KT 6SM BR BKN013 12/11 A3002 RMK AO2 T01220106 $
KCXY 280956Z AUTO 00000KT 7SM CLR 13/11 A3001 RMK AO2 SLP162 T01280111 $
KCXY 280856Z AUTO 00000KT 9SM SCT017 BKN065 14/11 A3001 RMK AO2 SLP161 T01440111 51008 $
KCXY 280756Z AUTO 00000KT 10SM BKN018 13/11 A3000 RMK AO2 SLP160 T01280111 $
KCXY 280656Z AUTO 00000KT 10SM CLR 12/11 A2999 RMK AO2 SLP157 T01220106 $
KCXY 280556Z AUTO 00000KT 10SM CLR 13/11 A2998 RMK AO2 SLP153 T01280106 10189 20128 51009 $
KCXY 280456Z AUTO 00000KT 10SM CLR 13/11 A2997 RMK AO2 SLP150 T01280106 402500128 $
KCXY 280356Z AUTO 00000KT 10SM CLR 13/11 A2997 RMK AO2 SLP149 T01330111 $
KCXY 280256Z AUTO 00000KT 10SM CLR 14/12 A2996 RMK AO2 SLP144 T01440117 53017 $
KCXY 280156Z AUTO 36003KT 10SM CLR 18/12 A2994 RMK AO2 SLP138 T01780117
KCXY 280056Z 00000KT 10SM CLR 18/09 A2992 RMK AO2 SLP132 T01780094
KCXY 272356Z 00000KT 10SM CLR 17/11 A2991 RMK AO2 SLP128 T01720111 10250 20172 53014
KCXY 272256Z 22003KT 10SM CLR 18/10 A2989 RMK AO2 SLP121 T01830100
KCXY 272156Z 17004KT 10SM CLR 24/06 A2988 RMK AO2 SLP116 T02390056
KCXY 272056Z 27003KT 10SM CLR 24/04 A2987 RMK AO2 SLP113 T02440044 56016
KCXY 271956Z 28005KT 10SM CLR 24/05 A2988 RMK AO2 SLP117 T02440050
KCXY 271856Z 26007KT 10SM CLR 24/06 A2990 RMK AO2 SLP123 T02390056
KCXY 271756Z 30006KT 10SM CLR 23/07 A2991 RMK AO2 SLP129 T02330067 10233 20150 56024
KCXY 271656Z 25004KT 10SM FEW052 22/07 A2994 RMK AO2 SLP136 T02220067
KCXY 271556Z 30005KT 10SM FEW052 21/09 A2996 RMK AO2 SLP145 T02110094
KCXY 271456Z 25006KT 10SM CLR 20/10 A2999 RMK AO2 SLP154 T02000100 50008
KCXY 271356Z 26005KT 10SM CLR 19/12 A2999 RMK AO2 SLP155 T01890122
KCXY 271256Z 25003KT 10SM FEW006 17/15 A2998 RMK AO2 SLP151 T01720150
KCXY 271156Z 00000KT 10SM CLR 15/13 A2996 RMK AO2 SLP146 70017 T01500133 10178 20144 53006